Terminal Aerodrome Forecast
Issued by NWS Corpus Christi, TX

Current Version | Previous Version | Text Only | Print | Product List | Glossary Off
Versions: 1 2 3 4 5 6 7 8 9 10 11 12 13 14 15 16 17 18 19 20 21 22

000
FTUS44 KCRP 211132
TAFVCT
TAF
KVCT 211132Z 2112/2212 15010KT 6SM BR SCT004 OVC008
      TEMPO 2112/2115 3SM -DZ BR BKN004 OVC008
     FM211530 16012KT P6SM BKN007 OVC015
      TEMPO 2116/2118 SCT008 BKN018
     FM211800 17014G18KT P6SM OVC018
     FM212100 16010KT P6SM BKN025 OVC040
     FM220200 18006KT 5SM BR SCT006 BKN012
     FM220600 21005KT 2SM BR OVC004
      TEMPO 2206/2210 1/2SM FG OVC002
     FM221000 29009KT 3SM BR BKN006=

USA.gov is the U.S. government's official web portal to all federal, state and local government web resources and services.